createdAt,value
2023-05-21T10:45:16.408Z,24.52
2023-05-21T10:46:16.558Z,24.49
2023-05-21T10:47:16.564Z,24.54
2023-05-21T10:48:16.626Z,24.57
2023-05-21T10:49:18.225Z,24.60
2023-05-21T10:50:18.072Z,24.52
2023-05-21T10:51:18.126Z,24.49
2023-05-21T10:52:18.037Z,24.47
2023-05-21T10:53:18.030Z,24.57
2023-05-21T10:54:17.816Z,24.75
2023-05-21T10:55:17.651Z,24.71
2023-05-21T10:56:17.492Z,24.61
2023-05-21T10:57:17.623Z,24.71
2023-05-21T10:58:17.318Z,24.88
2023-05-21T10:59:17.369Z,24.92
2023-05-21T11:00:17.892Z,24.87
2023-05-21T11:01:17.741Z,24.85
2023-05-21T11:02:18.032Z,25.06
2023-05-21T11:03:17.829Z,25.09
2023-05-21T11:04:17.969Z,24.98
2023-05-21T11:05:18.069Z,25.06
2023-05-21T11:06:17.712Z,25.20
2023-05-21T11:07:17.651Z,25.34
2023-05-21T11:08:17.854Z,25.54
2023-05-21T11:09:17.624Z,25.50
2023-05-21T11:10:17.924Z,25.59
2023-05-21T11:11:17.635Z,25.30
2023-05-21T11:12:17.696Z,25.31
2023-05-21T11:13:17.928Z,25.44
2023-05-21T11:14:19.215Z,25.43
2023-05-21T11:15:17.697Z,25.59
2023-05-21T11:16:17.759Z,25.57
2023-05-21T11:17:17.954Z,25.67
2023-05-21T11:18:17.467Z,25.74
2023-05-21T11:19:17.320Z,25.77
2023-05-21T11:20:17.870Z,25.75
2023-05-21T11:21:17.224Z,25.87
2023-05-21T11:22:17.396Z,25.90
2023-05-21T11:23:17.972Z,26.12
2023-05-21T11:24:17.466Z,26.29
2023-05-21T11:25:17.475Z,26.20
2023-05-21T11:26:17.427Z,26.05
2023-05-21T11:27:17.342Z,26.05
2023-05-21T11:28:17.632Z,26.21
2023-05-21T11:29:17.808Z,26.36
2023-05-21T11:30:17.722Z,26.29
2023-05-21T11:31:17.853Z,26.32
2023-05-21T11:32:17.758Z,26.37
2023-05-21T11:33:17.464Z,26.40
2023-05-21T11:34:17.964Z,26.35
2023-05-21T11:35:17.401Z,26.39
2023-05-21T11:36:17.181Z,26.57
2023-05-21T11:37:17.143Z,26.64
2023-05-21T11:38:17.206Z,26.64
2023-05-21T11:39:17.081Z,26.65
2023-05-21T11:40:17.372Z,26.83
2023-05-21T11:41:17.485Z,26.83
2023-05-21T11:42:17.880Z,26.83
2023-05-21T11:43:17.322Z,26.67
2023-05-21T11:44:17.715Z,26.57
2023-05-21T11:45:17.775Z,26.54
2023-05-21T11:46:17.284Z,26.50
2023-05-21T11:47:17.902Z,26.50
2023-05-21T11:48:17.457Z,26.59
2023-05-21T11:49:17.483Z,26.58
2023-05-21T11:50:17.427Z,26.61
2023-05-21T11:51:17.279Z,26.52
2023-05-21T11:52:17.104Z,26.59
2023-05-21T11:53:17.724Z,26.73
2023-05-21T11:54:17.437Z,26.79
2023-05-21T11:55:17.025Z,26.87
2023-05-21T11:56:17.278Z,26.73
2023-05-21T11:57:17.191Z,26.68
2023-05-21T11:58:17.310Z,26.58
2023-05-21T11:59:18.672Z,26.59
2023-05-21T12:00:17.878Z,26.65
2023-05-21T12:01:17.120Z,26.80
2023-05-21T12:02:17.044Z,26.96
2023-05-21T12:03:17.042Z,26.96
2023-05-21T12:04:17.013Z,26.95
2023-05-21T12:05:16.847Z,26.87
2023-05-21T12:06:17.354Z,26.89
2023-05-21T12:07:16.942Z,26.84
2023-05-21T12:08:17.078Z,27.02
2023-05-21T12:09:16.776Z,26.99
2023-05-21T12:10:17.301Z,26.94
2023-05-21T12:11:17.199Z,26.95
2023-05-21T12:12:17.034Z,27.04
2023-05-21T12:13:17.250Z,27.17
2023-05-21T12:14:17.371Z,27.28
2023-05-21T12:15:16.904Z,27.33
2023-05-21T12:16:17.211Z,27.42
2023-05-21T12:17:16.755Z,27.33
2023-05-21T12:18:17.321Z,27.33
2023-05-21T12:19:16.726Z,27.54
2023-05-21T12:20:16.720Z,27.54
2023-05-21T12:21:16.934Z,27.66
2023-05-21T12:22:17.077Z,27.64
2023-05-21T12:23:16.816Z,27.74
2023-05-21T12:24:17.298Z,27.91
2023-05-21T12:25:17.306Z,27.98
2023-05-21T12:26:17.077Z,28.03
2023-05-21T12:27:16.769Z,28.14
2023-05-21T12:28:17.354Z,27.95
2023-05-21T12:29:16.859Z,27.79
2023-05-21T12:30:16.912Z,27.98
2023-05-21T12:31:17.421Z,28.10
2023-05-21T12:32:16.886Z,28.32
2023-05-21T12:33:16.969Z,28.36
2023-05-21T12:34:16.939Z,28.25
2023-05-21T12:35:17.693Z,28.23
2023-05-21T12:36:17.422Z,28.29
2023-05-21T12:37:17.125Z,28.26
2023-05-21T12:38:18.080Z,28.40
2023-05-21T12:39:17.034Z,28.43
2023-05-21T12:40:17.239Z,28.40
2023-05-21T12:41:17.079Z,28.58
2023-05-21T12:42:17.380Z,28.43
2023-05-21T12:43:17.197Z,28.54
2023-05-21T12:44:17.075Z,28.40
2023-05-21T12:45:17.125Z,28.26
2023-05-21T12:46:17.030Z,28.07
2023-05-21T12:47:16.702Z,28.03
2023-05-21T12:48:16.762Z,28.21
2023-05-21T12:49:16.626Z,28.19
2023-05-21T12:50:17.260Z,28.26
2023-05-21T12:51:17.568Z,28.25
2023-05-21T12:52:16.989Z,28.22
2023-05-21T12:53:17.047Z,28.14
2023-05-21T12:54:16.838Z,28.07
2023-05-21T12:55:17.200Z,27.88
2023-05-21T12:56:16.978Z,27.86
2023-05-21T12:57:17.201Z,27.86
2023-05-21T12:58:16.855Z,27.96
2023-05-21T12:59:17.453Z,28.11
2023-05-21T13:00:16.746Z,27.99
2023-05-21T13:01:17.040Z,28.26
2023-05-21T13:02:17.295Z,28.47
2023-05-21T13:03:16.673Z,28.44
2023-05-21T13:04:17.064Z,28.47
2023-05-21T13:05:16.897Z,28.43
2023-05-21T13:06:17.100Z,28.56
2023-05-21T13:07:17.190Z,28.87
2023-05-21T13:08:17.065Z,29.03
2023-05-21T13:09:17.025Z,29.15
2023-05-21T13:10:17.132Z,29.18
2023-05-21T13:11:18.134Z,29.29
2023-05-21T13:12:17.212Z,29.47
2023-05-21T13:13:16.996Z,29.49
2023-05-21T13:14:16.791Z,29.47
2023-05-21T13:15:16.813Z,29.55
2023-05-21T13:16:17.038Z,29.43
2023-05-21T13:17:17.432Z,29.18
2023-05-21T13:18:17.000Z,29.01
2023-05-21T13:19:17.130Z,28.93
2023-05-21T13:20:16.718Z,29.00
2023-05-21T13:21:16.934Z,28.96
2023-05-21T13:22:16.972Z,29.04
2023-05-21T13:23:17.384Z,29.18
2023-05-21T13:24:16.980Z,29.26
2023-05-21T13:25:16.800Z,29.59
2023-05-21T13:26:16.667Z,29.66
2023-05-21T13:27:16.874Z,29.74
2023-05-21T13:28:18.024Z,29.79
2023-05-21T13:29:16.649Z,29.75
2023-05-21T13:30:16.756Z,29.56
2023-05-21T13:31:16.255Z,29.43
2023-05-21T13:32:16.774Z,29.65
2023-05-21T13:33:17.131Z,29.53
2023-05-21T13:34:16.641Z,29.63
2023-05-21T13:35:17.277Z,29.62
2023-05-21T13:36:16.777Z,29.86
2023-05-21T13:37:17.092Z,29.94
2023-05-21T13:38:16.687Z,30.02
2023-05-21T13:39:16.693Z,30.12
2023-05-21T13:40:16.582Z,30.29
2023-05-21T13:41:16.588Z,30.57
2023-05-21T13:42:16.887Z,30.78
2023-05-21T13:43:16.624Z,30.87
2023-05-21T13:44:16.911Z,31.27
2023-05-21T13:45:16.637Z,31.58
2023-05-21T13:46:16.743Z,31.77
2023-05-21T13:47:16.606Z,32.25
2023-05-21T13:48:16.727Z,32.47
2023-05-21T13:49:16.678Z,32.42
2023-05-21T13:50:16.979Z,32.48
2023-05-21T13:51:30.788Z,32.54
2023-05-21T13:52:18.038Z,32.66
2023-05-21T13:53:16.327Z,32.73
2023-05-21T13:54:16.661Z,33.04
2023-05-21T13:55:16.268Z,33.07
2023-05-21T13:56:16.724Z,32.86
2023-05-21T13:57:16.697Z,32.67
2023-05-21T13:58:16.396Z,32.98
2023-05-21T13:59:16.623Z,33.15
2023-05-21T14:00:16.594Z,33.01
2023-05-21T14:01:16.541Z,32.81
2023-05-21T14:02:16.666Z,32.62
2023-05-21T14:03:16.542Z,32.88
2023-05-21T14:04:16.776Z,33.23
2023-05-21T14:05:16.374Z,33.10
2023-05-21T14:06:16.378Z,32.92
2023-05-21T14:07:16.362Z,33.31
2023-05-21T14:08:16.588Z,33.43
2023-05-21T14:09:16.466Z,33.30
2023-05-21T14:10:16.501Z,33.29
2023-05-21T14:11:16.674Z,33.22
2023-05-21T14:12:16.421Z,33.49
2023-05-21T14:13:20.021Z,33.43
2023-05-21T14:14:17.062Z,33.10
2023-05-21T14:15:16.625Z,32.76
2023-05-21T14:16:16.785Z,32.86
2023-05-21T14:17:17.701Z,32.21
2023-05-21T14:18:16.438Z,31.96
2023-05-21T14:19:16.574Z,31.40
2023-05-21T14:20:17.669Z,31.45
2023-05-21T14:21:16.668Z,31.01
2023-05-21T14:22:16.370Z,30.53
2023-05-21T14:23:16.318Z,30.33
2023-05-21T14:24:16.379Z,30.30
2023-05-21T14:25:16.360Z,30.15
2023-05-21T14:26:16.457Z,30.30
2023-05-21T14:27:17.854Z,30.26
2023-05-21T14:28:16.663Z,30.11
2023-05-21T14:29:16.474Z,30.46
2023-05-21T14:30:16.570Z,30.49
2023-05-21T14:31:16.543Z,30.50
2023-05-21T14:32:16.889Z,30.57
2023-05-21T14:33:16.755Z,30.45
2023-05-21T14:34:16.388Z,30.24
2023-05-21T14:35:16.439Z,30.21
2023-05-21T14:36:16.430Z,30.40
2023-05-21T14:37:16.318Z,30.80
2023-05-21T14:38:15.996Z,30.83
2023-05-21T14:39:16.231Z,30.93
2023-05-21T14:40:16.074Z,30.89
2023-05-21T14:41:16.373Z,30.50
2023-05-21T14:42:17.009Z,30.23
2023-05-21T14:43:16.147Z,29.68
2023-05-21T14:44:16.258Z,29.13
2023-05-21T14:45:18.660Z,28.90
2023-05-21T14:46:17.201Z,28.69
2023-05-21T14:47:16.571Z,28.33
2023-05-21T14:48:16.698Z,28.22
2023-05-21T14:49:16.286Z,27.85
2023-05-21T14:50:16.439Z,27.71
2023-05-21T14:51:16.452Z,27.69
2023-05-21T14:52:16.359Z,27.88
2023-05-21T14:53:18.436Z,27.77
2023-05-21T14:54:16.225Z,27.77
2023-05-21T14:55:17.295Z,27.76
2023-05-21T14:56:17.293Z,27.92
2023-05-21T14:57:16.241Z,28.03
2023-05-21T14:58:16.636Z,28.11
2023-05-21T14:59:16.236Z,28.09
2023-05-21T15:00:16.193Z,28.03
2023-05-21T15:01:16.152Z,28.06
2023-05-21T15:02:16.219Z,28.07
2023-05-21T15:03:16.325Z,28.01
2023-05-21T15:04:16.211Z,28.10
2023-05-21T15:05:16.386Z,27.89
2023-05-21T15:06:17.270Z,27.79
2023-05-21T15:07:16.110Z,27.62
2023-05-21T15:08:16.093Z,27.69
2023-05-21T15:09:16.448Z,27.61
2023-05-21T15:10:18.578Z,27.61
2023-05-21T15:11:16.168Z,27.64
2023-05-21T15:12:16.342Z,27.53
2023-05-21T15:13:16.266Z,27.67
2023-05-21T15:14:16.676Z,27.77
2023-05-21T15:15:16.276Z,27.53
2023-05-21T15:16:17.358Z,27.39
2023-05-21T15:17:16.243Z,27.38
2023-05-21T15:18:15.886Z,27.20
2023-05-21T15:19:15.999Z,27.19
2023-05-21T15:20:16.701Z,27.04
2023-05-21T15:21:16.059Z,26.99
2023-05-21T15:22:16.128Z,26.91
2023-05-21T15:23:17.725Z,26.86
2023-05-21T15:24:17.113Z,26.74
2023-05-21T15:25:16.397Z,26.72
2023-05-21T15:26:16.396Z,26.57
2023-05-21T15:27:15.883Z,26.54
2023-05-21T15:28:15.967Z,26.46
2023-05-21T15:29:17.140Z,26.44
2023-05-21T15:30:16.017Z,26.40
2023-05-21T15:31:16.154Z,26.31
2023-05-21T15:32:15.809Z,26.39
2023-05-21T15:33:15.957Z,26.31
2023-05-21T15:34:16.185Z,26.27
2023-05-21T15:35:15.873Z,26.20
2023-05-21T15:36:15.850Z,26.06
2023-05-21T15:37:15.664Z,26.18
2023-05-21T15:38:15.608Z,26.20
2023-05-21T15:39:15.774Z,26.06
2023-05-21T15:40:15.734Z,26.04
2023-05-21T15:41:15.855Z,26.04
2023-05-21T15:42:15.792Z,26.09
2023-05-21T15:43:15.648Z,26.22
2023-05-21T15:44:15.850Z,26.18
2023-05-21T15:45:15.888Z,26.21
2023-05-21T15:46:16.256Z,26.17
2023-05-21T15:47:15.896Z,26.22
2023-05-21T15:48:15.878Z,26.20
2023-05-21T15:49:16.750Z,26.22
2023-05-21T15:50:15.878Z,26.25
2023-05-21T15:51:15.824Z,26.15
2023-05-21T15:52:17.168Z,26.15
2023-05-21T15:53:15.874Z,26.02
2023-05-21T15:54:15.890Z,25.98
2023-05-21T15:55:15.851Z,25.93
2023-05-21T15:56:15.921Z,25.93
2023-05-21T15:57:16.083Z,25.97
2023-05-21T15:58:15.657Z,25.89
2023-05-21T15:59:15.773Z,25.75
2023-05-21T16:00:15.678Z,25.74
2023-05-21T16:01:15.902Z,25.35
2023-05-21T16:02:16.497Z,25.19
2023-05-21T16:03:15.794Z,25.05
2023-05-21T16:04:15.753Z,25.16
2023-05-21T16:05:15.593Z,24.94
2023-05-21T16:06:15.212Z,24.77
2023-05-21T16:07:15.721Z,24.38
2023-05-21T16:08:15.900Z,24.29
2023-05-21T16:09:15.704Z,24.37
2023-05-21T16:10:15.783Z,24.44
2023-05-21T16:11:15.857Z,24.39
2023-05-21T16:12:15.879Z,24.17
2023-05-21T16:13:15.974Z,23.87
2023-05-21T16:14:15.728Z,23.61
2023-05-21T16:15:15.804Z,23.50
2023-05-21T16:16:15.603Z,23.50
2023-05-21T16:17:15.646Z,23.46
2023-05-21T16:18:16.416Z,23.58
2023-05-21T16:19:15.687Z,23.45
2023-05-21T16:20:15.649Z,23.45
2023-05-21T16:21:15.559Z,23.55
2023-05-21T16:22:15.580Z,23.68
2023-05-21T16:23:15.487Z,23.71
2023-05-21T16:24:15.687Z,23.62
2023-05-21T16:25:15.446Z,23.65
2023-05-21T16:26:15.646Z,23.61
2023-05-21T16:27:15.642Z,23.80
2023-05-21T16:28:15.748Z,23.89
2023-05-21T16:29:15.892Z,23.68
2023-05-21T16:30:15.589Z,23.65
2023-05-21T16:31:15.499Z,23.68
2023-05-21T16:32:15.985Z,23.85
2023-05-21T16:33:15.656Z,24.00
2023-05-21T16:34:15.793Z,24.04
2023-05-21T16:35:15.592Z,24.08
2023-05-21T16:36:17.475Z,24.13
2023-05-21T16:37:15.537Z,24.10
2023-05-21T16:38:15.448Z,24.34
2023-05-21T16:39:15.540Z,24.41
2023-05-21T16:40:15.712Z,24.47
2023-05-21T16:41:15.345Z,24.53
2023-05-21T16:42:15.528Z,24.69
2023-05-21T16:43:15.567Z,24.68
2023-05-21T16:44:15.751Z,24.75
2023-05-21T16:45:15.642Z,24.82
2023-05-21T16:46:16.941Z,24.71
2023-05-21T16:47:15.565Z,24.69
2023-05-21T16:48:15.566Z,24.76
2023-05-21T16:49:15.615Z,24.61
2023-05-21T16:50:15.960Z,24.57
2023-05-21T16:51:15.542Z,24.34
2023-05-21T16:52:15.548Z,24.13
2023-05-21T16:53:15.541Z,24.16
2023-05-21T16:54:15.486Z,24.39
2023-05-21T16:55:15.401Z,24.41
2023-05-21T16:56:16.038Z,24.52
2023-05-21T16:57:15.299Z,24.60
2023-05-21T16:58:15.652Z,24.71
2023-05-21T16:59:15.491Z,24.82
2023-05-21T17:00:15.456Z,24.73
2023-05-21T17:01:15.772Z,24.83
2023-05-21T17:02:15.382Z,24.87
2023-05-21T17:03:15.461Z,24.90
2023-05-21T17:04:16.488Z,24.95
2023-05-21T17:05:15.286Z,24.95
2023-05-21T17:06:16.002Z,24.97
2023-05-21T17:07:15.324Z,25.16
2023-05-21T17:08:15.432Z,25.16
2023-05-21T17:09:16.490Z,25.22
2023-05-21T17:10:15.436Z,25.32
2023-05-21T17:11:15.689Z,25.43
2023-05-21T17:12:15.900Z,25.37
2023-05-21T17:13:22.170Z,25.38
2023-05-21T17:14:32.682Z,25.42
2023-05-21T17:15:17.247Z,25.37
2023-05-21T17:16:15.311Z,25.47
2023-05-21T17:17:15.531Z,25.47
2023-05-21T17:18:15.341Z,25.53
2023-05-21T17:19:15.375Z,25.56
2023-05-21T17:20:15.328Z,25.56
2023-05-21T17:21:15.253Z,25.62
2023-05-21T17:22:15.426Z,25.67
2023-05-21T17:23:15.411Z,25.67
2023-05-21T17:24:15.292Z,25.82
2023-05-21T17:25:15.232Z,25.74
2023-05-21T17:26:15.172Z,25.80
2023-05-21T17:27:15.313Z,25.79
2023-05-21T17:28:15.062Z,25.83
2023-05-21T17:29:15.086Z,25.79
2023-05-21T17:30:15.309Z,25.77
2023-05-21T17:31:15.020Z,25.74
2023-05-21T17:32:14.804Z,25.67
2023-05-21T17:33:15.422Z,25.65
2023-05-21T17:34:14.797Z,25.52
2023-05-21T17:35:14.726Z,25.49
2023-05-21T17:36:15.165Z,25.39
2023-05-21T17:37:15.359Z,25.13
2023-05-21T17:38:15.381Z,25.22
2023-05-21T17:39:15.214Z,25.12
2023-05-21T17:40:15.149Z,24.98
2023-05-21T17:41:15.186Z,24.77
2023-05-21T17:42:14.868Z,24.56
2023-05-21T17:43:14.731Z,24.52
2023-05-21T17:44:15.285Z,24.49
2023-05-21T17:45:15.933Z,24.20
2023-05-21T17:46:14.974Z,24.05
2023-05-21T17:47:15.192Z,23.94
2023-05-21T17:48:15.075Z,23.67
2023-05-21T17:49:15.243Z,23.58
2023-05-21T17:50:14.939Z,23.42
2023-05-21T17:51:15.627Z,23.23
2023-05-21T17:52:15.266Z,23.15
2023-05-21T17:53:15.064Z,23.20
2023-05-21T17:54:15.236Z,23.31
2023-05-21T17:55:15.158Z,23.14
2023-05-21T17:56:15.083Z,22.93
2023-05-21T17:57:15.134Z,22.72
2023-05-21T17:58:15.049Z,22.64
2023-05-21T17:59:15.005Z,22.62
2023-05-21T18:00:15.106Z,22.59
2023-05-21T18:01:14.989Z,22.47
2023-05-21T18:02:15.002Z,22.54
2023-05-21T18:03:15.758Z,22.54
2023-05-21T18:04:14.974Z,22.35
2023-05-21T18:05:15.229Z,22.29
2023-05-21T18:06:15.053Z,22.09
2023-05-21T18:07:14.932Z,22.01
2023-05-21T18:08:15.029Z,21.91
2023-05-21T18:09:15.021Z,21.91
2023-05-21T18:10:15.400Z,21.85
2023-05-21T18:11:14.994Z,21.75
2023-05-21T18:12:14.800Z,21.60
2023-05-21T18:13:14.790Z,21.38
2023-05-21T18:14:14.946Z,21.26
2023-05-21T18:15:14.903Z,21.24
2023-05-21T18:16:15.164Z,21.26
2023-05-21T18:17:14.889Z,21.23
2023-05-21T18:18:14.852Z,21.19
2023-05-21T18:19:14.980Z,21.13
2023-05-21T18:20:15.174Z,21.20
2023-05-21T18:21:15.152Z,21.27
2023-05-21T18:22:15.040Z,21.30
2023-05-21T18:23:15.865Z,21.19
2023-05-21T18:24:14.894Z,21.24
2023-05-21T18:25:14.929Z,21.30
2023-05-21T18:26:14.894Z,21.19
2023-05-21T18:27:14.763Z,21.24
2023-05-21T18:28:14.717Z,21.34
2023-05-21T18:29:14.801Z,21.35
2023-05-21T18:30:14.780Z,21.45
2023-05-21T18:31:14.805Z,21.41
2023-05-21T18:32:15.343Z,21.53
2023-05-21T18:33:15.894Z,21.51
2023-05-21T18:34:16.180Z,21.59
2023-05-21T18:35:16.682Z,21.61
2023-05-21T18:36:15.788Z,21.64
2023-05-21T18:37:15.045Z,21.81
2023-05-21T18:38:14.735Z,21.79
2023-05-21T18:39:15.055Z,21.71
2023-05-21T18:40:15.857Z,21.76
2023-05-21T18:41:14.702Z,21.69
2023-05-21T18:42:15.044Z,21.60
2023-05-21T18:43:14.598Z,21.41
2023-05-21T18:44:14.635Z,21.39
2023-05-21T18:45:14.643Z,21.36
2023-05-21T18:46:14.691Z,21.38
2023-05-21T18:47:14.807Z,21.27
2023-05-21T18:48:15.152Z,21.24
2023-05-21T18:49:14.788Z,21.23
2023-05-21T18:50:15.864Z,21.24
2023-05-21T18:51:14.721Z,21.21
2023-05-21T18:52:14.751Z,21.26
2023-05-21T18:53:16.103Z,21.23
2023-05-21T18:54:14.882Z,21.27
2023-05-21T18:55:14.668Z,21.27
2023-05-21T18:56:14.596Z,21.32
2023-05-21T18:57:14.800Z,21.23
2023-05-21T18:58:14.919Z,21.30
2023-05-21T18:59:14.604Z,21.21
2023-05-21T19:00:15.981Z,21.13
2023-05-21T19:01:14.755Z,21.05
2023-05-21T19:02:14.774Z,21.02
2023-05-21T19:03:14.803Z,20.87
2023-05-21T19:04:14.989Z,20.79
2023-05-21T19:05:14.745Z,20.79
2023-05-21T19:06:14.766Z,20.83
2023-05-21T19:07:14.551Z,20.95
2023-05-21T19:08:14.395Z,20.91
2023-05-21T19:09:14.775Z,20.83
2023-05-21T19:10:14.584Z,20.83
2023-05-21T19:11:14.611Z,20.80
2023-05-21T19:12:14.592Z,20.76
2023-05-21T19:13:15.787Z,20.74
2023-05-21T19:14:15.248Z,20.79
2023-05-21T19:15:14.523Z,20.69
2023-05-21T19:16:14.351Z,20.72
2023-05-21T19:17:15.433Z,20.59
2023-05-21T19:18:14.436Z,20.56
2023-05-21T19:19:14.472Z,20.66
2023-05-21T19:20:15.715Z,20.56
2023-05-21T19:21:15.434Z,20.43
2023-05-21T19:22:14.475Z,20.42
2023-05-21T19:23:14.395Z,20.41
2023-05-21T19:24:14.467Z,20.41
2023-05-21T19:25:14.793Z,20.35
2023-05-21T19:26:15.529Z,20.38
2023-05-21T19:27:15.435Z,20.43
2023-05-21T19:28:14.745Z,20.42
2023-05-21T19:29:14.515Z,20.42
2023-05-21T19:30:14.697Z,20.49
2023-05-21T19:31:14.314Z,20.47
2023-05-21T19:32:15.378Z,20.43
2023-05-21T19:33:14.508Z,20.46
2023-05-21T19:34:14.272Z,20.43
2023-05-21T19:35:14.166Z,20.43
2023-05-21T19:36:14.631Z,20.41
2023-05-21T19:37:14.365Z,20.46
2023-05-21T19:38:14.371Z,20.46
2023-05-21T19:39:14.362Z,20.42
2023-05-21T19:40:14.402Z,20.41
2023-05-21T19:41:14.561Z,20.42
2023-05-21T19:42:14.687Z,20.43
2023-05-21T19:43:14.297Z,20.39
2023-05-21T19:44:15.345Z,20.41
2023-05-21T19:45:15.338Z,20.38
2023-05-21T19:46:17.218Z,20.41
2023-05-21T19:47:15.291Z,20.39
2023-05-21T19:48:14.246Z,20.39
2023-05-21T19:49:14.242Z,20.33
2023-05-21T19:50:14.245Z,20.28
2023-05-21T19:51:14.049Z,20.33
2023-05-21T19:52:15.547Z,20.30
2023-05-21T19:53:14.249Z,20.16
2023-05-21T19:54:15.234Z,20.16
2023-05-21T19:55:14.447Z,20.06
2023-05-21T19:56:14.446Z,20.16
2023-05-21T19:57:14.423Z,20.13
2023-05-21T19:58:14.273Z,20.21
2023-05-21T19:59:14.086Z,20.03
2023-05-21T20:00:14.154Z,20.09
2023-05-21T20:01:14.101Z,20.13
2023-05-21T20:02:14.321Z,20.10
2023-05-21T20:03:14.083Z,19.98
2023-05-21T20:04:14.124Z,20.09
2023-05-21T20:05:14.048Z,20.00
2023-05-21T20:06:14.050Z,20.03
2023-05-21T20:07:14.018Z,20.12
2023-05-21T20:08:14.291Z,20.13
2023-05-21T20:09:14.096Z,20.16
2023-05-21T20:10:14.441Z,20.12
2023-05-21T20:11:14.129Z,20.16
2023-05-21T20:12:14.101Z,20.06
2023-05-21T20:13:14.977Z,20.00
2023-05-21T20:14:14.066Z,19.95
2023-05-21T20:15:14.108Z,19.83
2023-05-21T20:16:14.089Z,19.86
2023-05-21T20:17:14.054Z,19.80
2023-05-21T20:18:14.381Z,19.78
2023-05-21T20:19:14.005Z,19.78
2023-05-21T20:20:13.968Z,19.76
2023-05-21T20:21:14.042Z,19.73
2023-05-21T20:22:13.961Z,19.73
2023-05-21T20:23:14.249Z,19.75
2023-05-21T20:24:14.447Z,19.70
2023-05-21T20:25:14.040Z,19.65
2023-05-21T20:26:14.986Z,19.60
2023-05-21T20:27:13.857Z,19.50
2023-05-21T20:28:13.953Z,19.39
2023-05-21T20:29:14.257Z,19.42
2023-05-21T20:30:13.971Z,19.39
2023-05-21T20:31:13.883Z,19.20
2023-05-21T20:32:13.839Z,19.24
2023-05-21T20:33:13.939Z,19.24
2023-05-21T20:34:14.147Z,19.20
2023-05-21T20:35:14.005Z,19.06
2023-05-21T20:36:13.859Z,19.15
2023-05-21T20:37:13.733Z,19.17
2023-05-21T20:38:13.832Z,19.20
2023-05-21T20:39:13.898Z,19.13
2023-05-21T20:40:14.975Z,19.24
2023-05-21T20:41:14.892Z,19.15
2023-05-21T20:42:13.663Z,19.21
2023-05-21T20:43:13.863Z,19.20
2023-05-21T20:44:13.812Z,19.29
2023-05-21T20:45:14.146Z,19.18
2023-05-21T20:46:13.882Z,19.21
2023-05-21T20:47:14.069Z,19.29
2023-05-21T20:48:13.881Z,19.29
2023-05-21T20:49:13.724Z,19.39
2023-05-21T20:50:13.920Z,19.43
2023-05-21T20:51:13.621Z,19.43
2023-05-21T20:52:13.744Z,19.46
2023-05-21T20:53:13.676Z,19.17
2023-05-21T20:54:13.837Z,19.10
2023-05-21T20:55:13.826Z,19.08
2023-05-21T20:56:13.972Z,19.18
2023-05-21T20:57:13.892Z,19.13
2023-05-21T20:58:14.574Z,19.13
2023-05-21T20:59:14.033Z,19.24
2023-05-21T21:00:13.821Z,19.24
2023-05-21T21:01:14.075Z,19.15
2023-05-21T21:02:13.622Z,19.02
2023-05-21T21:03:14.826Z,19.05
2023-05-21T21:04:13.600Z,19.02
2023-05-21T21:05:13.909Z,19.01
2023-05-21T21:06:13.779Z,18.95
2023-05-21T21:07:13.627Z,18.91
2023-05-21T21:08:13.601Z,18.83
2023-05-21T21:09:13.573Z,18.74
2023-05-21T21:10:13.458Z,18.80
2023-05-21T21:11:13.465Z,18.84
2023-05-21T21:12:25.417Z,18.72
2023-05-21T21:13:15.504Z,18.72
2023-05-21T21:14:13.253Z,18.80
2023-05-21T21:15:13.557Z,18.73
2023-05-21T21:16:14.056Z,18.64
2023-05-21T21:17:14.868Z,18.73
2023-05-21T21:18:14.645Z,18.61
2023-05-21T21:19:13.542Z,18.57
2023-05-21T21:20:13.563Z,18.55
2023-05-21T21:21:13.613Z,18.52
2023-05-21T21:22:14.113Z,18.52
2023-05-21T21:23:13.596Z,18.55
2023-05-21T21:24:13.605Z,18.61
2023-05-21T21:25:13.371Z,18.64
2023-05-21T21:26:13.468Z,18.64
2023-05-21T21:27:13.373Z,18.59
2023-05-21T21:28:13.615Z,18.61
2023-05-21T21:29:13.480Z,18.50
2023-05-21T21:30:13.426Z,18.65
2023-05-21T21:31:13.444Z,18.55
2023-05-21T21:32:13.541Z,18.50
2023-05-21T21:33:13.714Z,18.50
2023-05-21T21:34:13.453Z,18.39
2023-05-21T21:35:13.141Z,18.39
2023-05-21T21:36:13.395Z,18.31
2023-05-21T21:37:13.701Z,18.28
2023-05-21T21:38:13.615Z,18.22
2023-05-21T21:39:13.147Z,18.33
2023-05-21T21:40:13.123Z,18.22
2023-05-21T21:41:13.230Z,18.31
2023-05-21T21:42:13.047Z,18.24
2023-05-21T21:43:13.233Z,18.25
2023-05-21T21:44:13.559Z,18.34
2023-05-21T21:45:13.187Z,18.31
2023-05-21T21:46:14.492Z,18.22
2023-05-21T21:47:13.334Z,18.15
2023-05-21T21:48:13.208Z,18.21
2023-05-21T21:49:13.004Z,18.25
2023-05-21T21:50:12.847Z,18.18
2023-05-21T21:51:13.238Z,18.28
2023-05-21T21:52:12.746Z,18.21
2023-05-21T21:53:13.011Z,18.31
2023-05-21T21:54:13.075Z,18.25
2023-05-21T21:55:12.923Z,18.36
2023-05-21T21:56:12.634Z,18.28
2023-05-21T21:57:12.718Z,18.18
2023-05-21T21:58:12.660Z,18.06
2023-05-21T21:59:12.775Z,18.07
2023-05-21T22:00:13.024Z,18.04
2023-05-21T22:01:12.613Z,17.88
2023-05-21T22:02:12.735Z,17.76
2023-05-21T22:03:14.609Z,17.79
2023-05-21T22:04:12.535Z,17.74
2023-05-21T22:05:12.527Z,17.71
2023-05-21T22:06:12.601Z,17.63
2023-05-21T22:07:12.509Z,17.53
2023-05-21T22:08:12.548Z,17.51
2023-05-21T22:09:12.561Z,17.53
2023-05-21T22:10:13.028Z,17.55
2023-05-21T22:11:12.664Z,17.44
2023-05-21T22:12:12.516Z,17.50
2023-05-21T22:13:12.680Z,17.50
2023-05-21T22:14:12.484Z,17.51
2023-05-21T22:15:12.658Z,17.54
2023-05-21T22:16:12.721Z,17.54
2023-05-21T22:17:12.613Z,17.50
2023-05-21T22:18:12.590Z,17.59
2023-05-21T22:19:12.485Z,17.55
2023-05-21T22:20:12.521Z,17.78
2023-05-21T22:21:12.584Z,17.89
2023-05-21T22:22:12.700Z,17.88
2023-05-21T22:23:12.526Z,17.84
2023-05-21T22:24:24.124Z,17.66
2023-05-21T22:25:14.406Z,17.59
2023-05-21T22:26:12.804Z,17.66
2023-05-21T22:27:12.525Z,17.71
2023-05-21T22:28:12.476Z,17.89
2023-05-21T22:29:12.477Z,17.91
2023-05-21T22:30:12.380Z,18.04
2023-05-21T22:31:12.437Z,18.15
2023-05-21T22:32:12.520Z,18.27
2023-05-21T22:33:12.447Z,18.29
2023-05-21T22:34:12.596Z,18.34
2023-05-21T22:35:12.270Z,18.37
2023-05-21T22:36:12.272Z,18.44
2023-05-21T22:37:12.294Z,18.54
2023-05-21T22:38:12.240Z,18.54
2023-05-21T22:39:12.255Z,18.59
2023-05-21T22:40:13.082Z,18.58
2023-05-21T22:41:13.309Z,18.55
2023-05-21T22:42:12.273Z,18.58
2023-05-21T22:43:12.250Z,18.50
2023-05-21T22:44:12.316Z,18.52
2023-05-21T22:45:12.262Z,18.44
2023-05-21T22:46:12.654Z,18.46
2023-05-21T22:47:12.256Z,18.47
2023-05-21T22:48:12.437Z,18.47
2023-05-21T22:49:12.255Z,18.39
2023-05-21T22:50:12.203Z,18.40
2023-05-21T22:51:12.213Z,18.39
2023-05-21T22:52:12.269Z,18.25
2023-05-21T22:53:12.274Z,18.18
2023-05-21T22:54:12.227Z,18.17
2023-05-21T22:55:12.209Z,18.10
2023-05-21T22:56:12.255Z,18.00
2023-05-21T22:57:12.515Z,18.07
2023-05-21T22:58:12.247Z,18.04
2023-05-21T22:59:12.210Z,17.97
2023-05-21T23:00:12.182Z,17.91
2023-05-21T23:01:12.186Z,17.85
2023-05-21T23:02:12.305Z,17.91
2023-05-21T23:03:12.215Z,17.84
2023-05-21T23:04:12.144Z,17.87
2023-05-21T23:05:12.251Z,17.88
2023-05-21T23:06:12.207Z,17.89
2023-05-21T23:07:12.172Z,17.84
2023-05-21T23:08:12.381Z,17.85
2023-05-21T23:09:12.076Z,17.81
2023-05-21T23:10:11.983Z,17.85
2023-05-21T23:11:12.000Z,17.76
2023-05-21T23:12:11.982Z,17.71
2023-05-21T23:13:12.077Z,17.66
2023-05-21T23:14:11.986Z,17.66
2023-05-21T23:15:11.935Z,17.53
2023-05-21T23:16:12.098Z,17.59
2023-05-21T23:17:12.023Z,17.63
2023-05-21T23:18:12.071Z,17.54
2023-05-21T23:19:12.150Z,17.54
2023-05-21T23:20:12.008Z,17.57
2023-05-21T23:21:12.267Z,17.51
2023-05-21T23:22:11.953Z,17.66
2023-05-21T23:23:11.988Z,17.70
2023-05-21T23:24:11.998Z,17.57
2023-05-21T23:25:11.967Z,17.55
2023-05-21T23:26:12.014Z,17.51
2023-05-21T23:27:11.948Z,17.63
2023-05-21T23:28:11.947Z,17.62
2023-05-21T23:29:11.986Z,17.67
2023-05-21T23:30:12.208Z,17.71
2023-05-21T23:31:11.990Z,17.84
2023-05-21T23:32:12.173Z,17.82
2023-05-21T23:33:11.944Z,17.91
2023-05-21T23:34:11.887Z,17.97
2023-05-21T23:35:11.934Z,18.06
2023-05-21T23:36:11.902Z,18.10
2023-05-21T23:37:11.844Z,18.15